sensor_id;sensor_type;location;lat;lon;timestamp;pressure;altitude;pressure_sealevel;temperature;humidity
58385;BME280;44185;47.844;8.966;2022-10-14T00:01:32;96450.09;;;11.20;100.00
58385;BME280;44185;47.844;8.966;2022-10-14T00:03:57;96445.59;;;11.10;100.00
58385;BME280;44185;47.844;8.966;2022-10-14T00:06:23;96441.00;;;11.12;100.00
58385;BME280;44185;47.844;8.966;2022-10-14T00:08:49;96430.66;;;11.09;100.00
58385;BME280;44185;47.844;8.966;2022-10-14T00:11:15;96430.09;;;11.06;100.00
58385;BME280;44185;47.844;8.966;2022-10-14T00:13:43;96426.44;;;11.07;100.00
58385;BME280;44185;47.844;8.966;2022-10-14T00:16:13;96434.13;;;11.10;100.00
58385;BME280;44185;47.844;8.966;2022-10-14T00:18:39;96443.38;;;11.16;100.00
58385;BME280;44185;47.844;8.966;2022-10-14T00:21:04;96439.06;;;11.15;100.00
58385;BME280;44185;47.844;8.966;2022-10-14T00:23:29;96431.69;;;11.18;100.00
58385;BME280;44185;47.844;8.966;2022-10-14T00:25:55;96436.94;;;11.08;100.00
58385;BME280;44185;47.844;8.966;2022-10-14T00:28:20;96434.59;;;11.15;100.00
58385;BME280;44185;47.844;8.966;2022-10-14T00:30:53;96439.19;;;11.13;100.00
58385;BME280;44185;47.844;8.966;2022-10-14T00:33:18;96423.19;;;11.15;100.00
58385;BME280;44185;47.844;8.966;2022-10-14T00:35:43;96424.97;;;11.14;100.00
58385;BME280;44185;47.844;8.966;2022-10-14T00:38:16;96421.22;;;11.17;100.00
58385;BME280;44185;47.844;8.966;2022-10-14T00:40:41;96423.88;;;11.17;100.00
58385;BME280;44185;47.844;8.966;2022-10-14T00:43:08;96421.94;;;11.19;100.00
58385;BME280;44185;47.844;8.966;2022-10-14T00:45:34;96421.22;;;11.17;100.00
58385;BME280;44185;47.844;8.966;2022-10-14T00:48:00;96418.97;;;11.12;100.00
58385;BME280;44185;47.844;8.966;2022-10-14T00:50:26;96421.31;;;11.05;100.00
58385;BME280;44185;47.844;8.966;2022-10-14T00:52:51;96415.03;;;11.06;100.00
58385;BME280;44185;47.844;8.966;2022-10-14T00:55:17;96417.94;;;11.03;100.00
58385;BME280;44185;47.844;8.966;2022-10-14T00:57:42;96419.91;;;11.01;100.00
58385;BME280;44185;47.844;8.966;2022-10-14T01:00:09;96416.41;;;11.00;100.00
58385;BME280;44185;47.844;8.966;2022-10-14T01:02:34;96405.41;;;11.05;100.00
58385;BME280;44185;47.844;8.966;2022-10-14T01:05:01;96412.75;;;11.01;100.00
58385;BME280;44185;47.844;8.966;2022-10-14T01:07:30;96416.00;;;10.84;100.00
58385;BME280;44185;47.844;8.966;2022-10-14T01:09:59;96413.50;;;10.82;100.00
58385;BME280;44185;47.844;8.966;2022-10-14T01:12:29;96409.88;;;10.83;100.00
58385;BME280;44185;47.844;8.966;2022-10-14T01:15:00;96407.13;;;10.63;100.00
58385;BME280;44185;47.844;8.966;2022-10-14T01:17:29;96408.28;;;10.71;100.00
58385;BME280;44185;47.844;8.966;2022-10-14T01:20:07;96418.34;;;10.77;100.00
58385;BME280;44185;47.844;8.966;2022-10-14T01:22:41;96411.13;;;10.79;100.00
58385;BME280;44185;47.844;8.966;2022-10-14T01:25:13;96405.38;;;10.74;100.00
58385;BME280;44185;47.844;8.966;2022-10-14T01:27:54;96406.59;;;10.70;100.00
58385;BME280;44185;47.844;8.966;2022-10-14T01:30:28;96402.56;;;10.54;100.00
58385;BME280;44185;47.844;8.966;2022-10-14T01:35:42;96403.88;;;10.60;100.00
58385;BME280;44185;47.844;8.966;2022-10-14T01:38:14;96403.63;;;10.63;100.00
58385;BME280;44185;47.844;8.966;2022-10-14T01:40:45;96407.81;;;10.65;100.00
58385;BME280;44185;47.844;8.966;2022-10-14T01:43:14;96405.56;;;10.61;100.00
58385;BME280;44185;47.844;8.966;2022-10-14T01:45:42;96398.63;;;10.70;100.00
58385;BME280;44185;47.844;8.966;2022-10-14T01:48:09;96396.97;;;10.68;100.00
58385;BME280;44185;47.844;8.966;2022-10-14T01:50:37;96397.63;;;10.61;100.00
58385;BME280;44185;47.844;8.966;2022-10-14T01:53:04;96399.88;;;10.65;100.00
58385;BME280;44185;47.844;8.966;2022-10-14T01:55:32;96399.88;;;10.65;100.00
58385;BME280;44185;47.844;8.966;2022-10-14T01:57:59;96402.47;;;10.55;100.00
58385;BME280;44185;47.844;8.966;2022-10-14T02:00:24;96397.41;;;10.52;100.00
58385;BME280;44185;47.844;8.966;2022-10-14T02:02:51;96393.19;;;10.61;100.00
58385;BME280;44185;47.844;8.966;2022-10-14T02:05:17;96391.09;;;10.65;100.00
58385;BME280;44185;47.844;8.966;2022-10-14T02:07:44;96386.78;;;10.64;100.00
58385;BME280;44185;47.844;8.966;2022-10-14T02:10:14;96378.44;;;10.68;100.00
58385;BME280;44185;47.844;8.966;2022-10-14T02:12:44;96382.44;;;10.63;100.00
58385;BME280;44185;47.844;8.966;2022-10-14T02:15:16;96374.19;;;10.56;100.00
58385;BME280;44185;47.844;8.966;2022-10-14T02:17:47;96377.22;;;10.51;100.00
58385;BME280;44185;47.844;8.966;2022-10-14T02:20:18;96380.81;;;10.50;100.00
58385;BME280;44185;47.844;8.966;2022-10-14T02:22:45;96376.38;;;10.51;100.00
58385;BME280;44185;47.844;8.966;2022-10-14T02:25:13;96381.91;;;10.48;100.00
58385;BME280;44185;47.844;8.966;2022-10-14T02:27:40;96380.47;;;10.43;100.00
58385;BME280;44185;47.844;8.966;2022-10-14T02:30:07;96384.59;;;10.36;100.00
58385;BME280;44185;47.844;8.966;2022-10-14T02:32:32;96384.13;;;10.31;100.00
58385;BME280;44185;47.844;8.966;2022-10-14T02:34:58;96375.59;;;10.27;100.00
58385;BME280;44185;47.844;8.966;2022-10-14T02:37:25;96373.25;;;10.24;100.00
58385;BME280;44185;47.844;8.966;2022-10-14T02:39:53;96363.47;;;10.24;100.00
58385;BME280;44185;47.844;8.966;2022-10-14T02:42:21;96363.81;;;10.31;100.00
58385;BME280;44185;47.844;8.966;2022-10-14T02:44:52;96362.47;;;10.37;100.00
58385;BME280;44185;47.844;8.966;2022-10-14T02:47:18;96360.53;;;10.39;100.00
58385;BME280;44185;47.844;8.966;2022-10-14T02:49:43;96354.91;;;10.32;100.00
58385;BME280;44185;47.844;8.966;2022-10-14T02:52:08;96350.34;;;10.34;100.00
58385;BME280;44185;47.844;8.966;2022-10-14T02:54:35;96346.16;;;10.32;100.00
58385;BME280;44185;47.844;8.966;2022-10-14T02:57:00;96353.84;;;10.35;100.00
58385;BME280;44185;47.844;8.966;2022-10-14T02:59:25;96347.91;;;10.43;100.00
58385;BME280;44185;47.844;8.966;2022-10-14T03:01:50;96351.31;;;10.33;100.00
58385;BME280;44185;47.844;8.966;2022-10-14T03:04:15;96350.00;;;10.28;100.00
58385;BME280;44185;47.844;8.966;2022-10-14T03:06:41;96352.41;;;10.31;100.00
58385;BME280;44185;47.844;8.966;2022-10-14T03:09:06;96348.19;;;10.28;100.00
58385;BME280;44185;47.844;8.966;2022-10-14T03:11:33;96348.91;;;10.30;100.00
58385;BME280;44185;47.844;8.966;2022-10-14T03:13:58;96347.94;;;10.31;100.00
58385;BME280;44185;47.844;8.966;2022-10-14T03:16:23;96349.63;;;10.32;100.00
58385;BME280;44185;47.844;8.966;2022-10-14T03:18:49;96350.47;;;10.33;100.00
58385;BME280;44185;47.844;8.966;2022-10-14T03:21:14;96344.06;;;10.35;100.00
58385;BME280;44185;47.844;8.966;2022-10-14T03:23:39;96344.88;;;10.48;100.00
58385;BME280;44185;47.844;8.966;2022-10-14T03:26:04;96339.44;;;10.49;100.00
58385;BME280;44185;47.844;8.966;2022-10-14T03:28:31;96337.28;;;10.54;100.00
58385;BME280;44185;47.844;8.966;2022-10-14T03:30:56;96337.69;;;10.38;100.00
58385;BME280;44185;47.844;8.966;2022-10-14T03:33:21;96332.16;;;10.41;100.00
58385;BME280;44185;47.844;8.966;2022-10-14T03:35:47;96335.50;;;10.43;100.00
58385;BME280;44185;47.844;8.966;2022-10-14T03:38:12;96325.25;;;10.29;100.00
58385;BME280;44185;47.844;8.966;2022-10-14T03:40:37;96327.88;;;10.29;100.00
58385;BME280;44185;47.844;8.966;2022-10-14T03:43:02;96329.53;;;10.30;100.00
58385;BME280;44185;47.844;8.966;2022-10-14T03:45:29;96319.59;;;10.22;100.00
58385;BME280;44185;47.844;8.966;2022-10-14T03:47:54;96319.88;;;10.19;100.00
58385;BME280;44185;47.844;8.966;2022-10-14T03:50:19;96314.84;;;10.16;100.00
58385;BME280;44185;47.844;8.966;2022-10-14T03:52:45;96316.31;;;10.30;100.00
58385;BME280;44185;47.844;8.966;2022-10-14T03:55:10;96313.56;;;10.31;100.00
58385;BME280;44185;47.844;8.966;2022-10-14T03:57:35;96305.38;;;10.34;100.00
58385;BME280;44185;47.844;8.966;2022-10-14T04:00:00;96311.53;;;10.35;100.00
58385;BME280;44185;47.844;8.966;2022-10-14T04:02:28;96305.69;;;10.20;100.00
58385;BME280;44185;47.844;8.966;2022-10-14T04:04:53;96307.13;;;10.24;100.00
58385;BME280;44185;47.844;8.966;2022-10-14T04:07:18;96311.44;;;10.25;100.00
58385;BME280;44185;47.844;8.966;2022-10-14T04:09:43;96300.28;;;10.21;100.00
58385;BME280;44185;47.844;8.966;2022-10-14T04:12:08;96301.56;;;10.27;100.00
58385;BME280;44185;47.844;8.966;2022-10-14T04:14:34;96299.03;;;10.26;100.00
58385;BME280;44185;47.844;8.966;2022-10-14T04:16:59;96297.09;;;10.28;100.00
58385;BME280;44185;47.844;8.966;2022-10-14T04:19:26;96297.09;;;10.28;100.00
58385;BME280;44185;47.844;8.966;2022-10-14T04:21:51;96295.31;;;10.28;100.00
58385;BME280;44185;47.844;8.966;2022-10-14T04:24:16;96297.06;;;10.39;100.00
58385;BME280;44185;47.844;8.966;2022-10-14T04:26:41;96292.16;;;10.34;100.00
58385;BME280;44185;47.844;8.966;2022-10-14T04:29:07;96294.25;;;10.41;100.00
58385;BME280;44185;47.844;8.966;2022-10-14T04:31:32;96286.78;;;10.46;100.00
58385;BME280;44185;47.844;8.966;2022-10-14T04:33:57;96293.50;;;10.50;100.00
58385;BME280;44185;47.844;8.966;2022-10-14T04:36:24;96283.16;;;10.47;100.00
58385;BME280;44185;47.844;8.966;2022-10-14T04:38:49;96287.38;;;10.50;100.00
58385;BME280;44185;47.844;8.966;2022-10-14T04:41:14;96282.91;;;10.50;100.00
58385;BME280;44185;47.844;8.966;2022-10-14T04:43:39;96279.19;;;10.53;100.00
58385;BME280;44185;47.844;8.966;2022-10-14T04:46:05;96279.91;;;10.55;100.00
58385;BME280;44185;47.844;8.966;2022-10-14T04:48:30;96272.34;;;10.50;100.00
58385;BME280;44185;47.844;8.966;2022-10-14T04:50:55;96271.38;;;10.51;100.00
58385;BME280;44185;47.844;8.966;2022-10-14T04:53:22;96273.06;;;10.52;100.00
58385;BME280;44185;47.844;8.966;2022-10-14T04:55:47;96263.44;;;10.51;100.00
58385;BME280;44185;47.844;8.966;2022-10-14T04:58:12;96264.66;;;10.47;100.00
58385;BME280;44185;47.844;8.966;2022-10-14T05:00:37;96263.44;;;10.51;100.00
58385;BME280;44185;47.844;8.966;2022-10-14T05:03:03;96256.09;;;10.55;100.00
58385;BME280;44185;47.844;8.966;2022-10-14T05:05:28;96254.13;;;10.57;100.00
58385;BME280;44185;47.844;8.966;2022-10-14T05:07:53;96251.75;;;10.54;100.00
58385;BME280;44185;47.844;8.966;2022-10-14T05:10:20;96247.44;;;10.53;100.00
58385;BME280;44185;47.844;8.966;2022-10-14T05:12:45;96249.38;;;10.51;100.00
58385;BME280;44185;47.844;8.966;2022-10-14T05:15:10;96242.00;;;10.54;100.00
58385;BME280;44185;47.844;8.966;2022-10-14T05:17:36;96237.75;;;10.42;100.00
58385;BME280;44185;47.844;8.966;2022-10-14T05:20:01;96234.53;;;10.38;100.00
58385;BME280;44185;47.844;8.966;2022-10-14T05:22:26;96240.00;;;10.46;100.00
58385;BME280;44185;47.844;8.966;2022-10-14T05:24:51;96247.69;;;10.50;100.00
58385;BME280;44185;47.844;8.966;2022-10-14T05:27:18;96230.84;;;10.51;100.00
58385;BME280;44185;47.844;8.966;2022-10-14T05:29:43;96233.38;;;10.52;100.00
58385;BME280;44185;47.844;8.966;2022-10-14T05:32:09;96226.91;;;10.45;100.00
58385;BME280;44185;47.844;8.966;2022-10-14T05:34:34;96232.72;;;10.39;100.00
58385;BME280;44185;47.844;8.966;2022-10-14T05:36:59;96234.53;;;10.38;100.00
58385;BME280;44185;47.844;8.966;2022-10-14T05:39:24;96227.03;;;10.43;100.00
58385;BME280;44185;47.844;8.966;2022-10-14T05:41:49;96226.59;;;10.38;100.00
58385;BME280;44185;47.844;8.966;2022-10-14T05:44:16;96231.63;;;10.41;100.00
58385;BME280;44185;47.844;8.966;2022-10-14T05:46:41;96223.41;;;10.44;100.00
58385;BME280;44185;47.844;8.966;2022-10-14T05:49:06;96222.28;;;10.59;100.00
58385;BME280;44185;47.844;8.966;2022-10-14T05:51:32;96219.75;;;10.57;100.00
58385;BME280;44185;47.844;8.966;2022-10-14T05:53:57;96217.53;;;10.62;100.00
58385;BME280;44185;47.844;8.966;2022-10-14T05:56:23;96211.53;;;10.60;100.00
58385;BME280;44185;47.844;8.966;2022-10-14T05:58:48;96216.31;;;10.66;100.00
58385;BME280;44185;47.844;8.966;2022-10-14T06:01:15;96222.75;;;10.74;100.00
58385;BME280;44185;47.844;8.966;2022-10-14T06:03:40;96212.16;;;10.74;100.00
58385;BME280;44185;47.844;8.966;2022-10-14T06:06:05;96211.31;;;10.73;100.00
58385;BME280;44185;47.844;8.966;2022-10-14T06:08:31;96208.66;;;10.73;100.00
58385;BME280;44185;47.844;8.966;2022-10-14T06:10:56;96207.44;;;10.77;100.00
58385;BME280;44185;47.844;8.966;2022-10-14T06:13:21;96211.22;;;10.85;100.00
58385;BME280;44185;47.844;8.966;2022-10-14T06:15:47;96213.72;;;10.86;100.00
58385;BME280;44185;47.844;8.966;2022-10-14T06:18:13;96210.09;;;10.87;100.00
58385;BME280;44185;47.844;8.966;2022-10-14T06:20:38;96209.28;;;10.97;100.00
58385;BME280;44185;47.844;8.966;2022-10-14T06:23:04;96214.16;;;11.01;100.00
58385;BME280;44185;47.844;8.966;2022-10-14T06:25:29;96212.94;;;11.06;100.00
58385;BME280;44185;47.844;8.966;2022-10-14T06:27:55;96211.84;;;11.08;100.00
58385;BME280;44185;47.844;8.966;2022-10-14T06:30:25;96218.66;;;11.11;100.00
58385;BME280;44185;47.844;8.966;2022-10-14T06:32:51;96210.56;;;11.12;100.00
58385;BME280;44185;47.844;8.966;2022-10-14T06:35:17;96213.94;;;11.15;100.00
58385;BME280;44185;47.844;8.966;2022-10-14T06:37:43;96211.16;;;11.16;100.00
58385;BME280;44185;47.844;8.966;2022-10-14T06:40:08;96217.97;;;11.19;100.00
58385;BME280;44185;47.844;8.966;2022-10-14T06:42:34;96223.97;;;11.21;100.00
58385;BME280;44185;47.844;8.966;2022-10-14T06:44:59;96218.69;;;11.21;100.00
58385;BME280;44185;47.844;8.966;2022-10-14T06:47:24;96219.38;;;11.23;100.00
58385;BME280;44185;47.844;8.966;2022-10-14T06:49:49;96218.00;;;11.29;100.00
58385;BME280;44185;47.844;8.966;2022-10-14T06:52:16;96208.25;;;11.29;100.00
58385;BME280;44185;47.844;8.966;2022-10-14T06:54:41;96212.69;;;11.29;100.00
58385;BME280;44185;47.844;8.966;2022-10-14T06:57:06;96212.69;;;11.29;100.00
58385;BME280;44185;47.844;8.966;2022-10-14T06:59:32;96221.22;;;11.32;100.00
58385;BME280;44185;47.844;8.966;2022-10-14T07:01:57;96218.13;;;11.27;100.00
58385;BME280;44185;47.844;8.966;2022-10-14T07:04:22;96221.91;;;11.34;100.00
58385;BME280;44185;47.844;8.966;2022-10-14T07:06:47;96214.66;;;11.37;100.00
58385;BME280;44185;47.844;8.966;2022-10-14T07:09:14;96221.06;;;11.34;100.00
58385;BME280;44185;47.844;8.966;2022-10-14T07:11:39;96219.53;;;11.31;100.00
58385;BME280;44185;47.844;8.966;2022-10-14T07:14:04;96221.34;;;11.31;100.00
58385;BME280;44185;47.844;8.966;2022-10-14T07:16:30;96228.06;;;11.35;100.00
58385;BME280;44185;47.844;8.966;2022-10-14T07:18:55;96227.78;;;11.48;100.00
58385;BME280;44185;47.844;8.966;2022-10-14T07:21:20;96230.16;;;11.51;100.00
58385;BME280;44185;47.844;8.966;2022-10-14T07:23:45;96218.72;;;11.61;100.00
58385;BME280;44185;47.844;8.966;2022-10-14T07:26:13;96227.66;;;11.60;100.00
58385;BME280;44185;47.844;8.966;2022-10-14T07:28:38;96219.72;;;11.60;100.00
58385;BME280;44185;47.844;8.966;2022-10-14T07:31:04;96223.06;;;11.62;100.00
58385;BME280;44185;47.844;8.966;2022-10-14T07:33:30;96224.31;;;11.67;100.00
58385;BME280;44185;47.844;8.966;2022-10-14T07:35:58;96227.38;;;11.83;100.00
58385;BME280;44185;47.844;8.966;2022-10-14T07:38:24;96227.38;;;11.83;100.00
58385;BME280;44185;47.844;8.966;2022-10-14T07:40:58;96227.50;;;11.81;100.00
58385;BME280;44185;47.844;8.966;2022-10-14T07:43:25;96232.81;;;11.91;100.00
58385;BME280;44185;47.844;8.966;2022-10-14T07:45:51;96232.41;;;11.86;100.00
58385;BME280;44185;47.844;8.966;2022-10-14T07:48:16;96234.31;;;11.84;100.00
58385;BME280;44185;47.844;8.966;2022-10-14T07:50:41;96233.66;;;11.92;100.00
58385;BME280;44185;47.844;8.966;2022-10-14T07:53:06;96233.75;;;12.00;100.00
58385;BME280;44185;47.844;8.966;2022-10-14T07:55:32;96235.69;;;12.08;100.00
58385;BME280;44185;47.844;8.966;2022-10-14T07:57:57;96238.06;;;12.11;100.00
58385;BME280;44185;47.844;8.966;2022-10-14T08:00:24;96241.31;;;12.05;100.00
58385;BME280;44185;47.844;8.966;2022-10-14T08:02:49;96241.31;;;12.15;100.00
58385;BME280;44185;47.844;8.966;2022-10-14T08:05:14;96237.97;;;12.22;100.00
58385;BME280;44185;47.844;8.966;2022-10-14T08:07:39;96236.84;;;12.15;100.00
58385;BME280;44185;47.844;8.966;2022-10-14T08:10:05;96241.31;;;12.05;100.00
58385;BME280;44185;47.844;8.966;2022-10-14T08:12:30;96246.06;;;12.01;100.00
58385;BME280;44185;47.844;8.966;2022-10-14T08:14:55;96235.59;;;11.99;100.00
58385;BME280;44185;47.844;8.966;2022-10-14T08:17:22;96235.31;;;11.93;100.00
58385;BME280;44185;47.844;8.966;2022-10-14T08:19:48;96233.09;;;11.88;100.00
58385;BME280;44185;47.844;8.966;2022-10-14T08:22:13;96231.41;;;11.97;100.00
58385;BME280;44185;47.844;8.966;2022-10-14T08:24:38;96239.63;;;12.04;100.00
58385;BME280;44185;47.844;8.966;2022-10-14T08:27:03;96236.09;;;12.13;100.00
58385;BME280;44185;47.844;8.966;2022-10-14T08:29:29;96240.59;;;12.12;100.00
58385;BME280;44185;47.844;8.966;2022-10-14T08:31:54;96228.88;;;12.05;100.00
58385;BME280;44185;47.844;8.966;2022-10-14T08:34:20;96233.47;;;12.03;100.00
58385;BME280;44185;47.844;8.966;2022-10-14T08:36:46;96240.88;;;12.09;100.00
58385;BME280;44185;47.844;8.966;2022-10-14T08:39:11;96234.88;;;12.07;100.00
58385;BME280;44185;47.844;8.966;2022-10-14T08:41:43;96241.31;;;12.05;100.00
58385;BME280;44185;47.844;8.966;2022-10-14T08:44:12;96237.53;;;12.17;100.00
58385;BME280;44185;47.844;8.966;2022-10-14T08:46:39;96239.91;;;12.20;100.00
58385;BME280;44185;47.844;8.966;2022-10-14T08:49:08;96247.44;;;12.05;100.00
58385;BME280;44185;47.844;8.966;2022-10-14T08:51:36;96253.75;;;12.14;100.00
58385;BME280;44185;47.844;8.966;2022-10-14T08:54:04;96254.44;;;12.26;100.00
58385;BME280;44185;47.844;8.966;2022-10-14T08:56:31;96249.38;;;12.33;100.00
58385;BME280;44185;47.844;8.966;2022-10-14T08:58:59;96261.97;;;12.31;100.00
58385;BME280;44185;47.844;8.966;2022-10-14T09:01:25;96258.03;;;12.35;100.00
58385;BME280;44185;47.844;8.966;2022-10-14T09:03:52;96248.66;;;12.41;100.00
58385;BME280;44185;47.844;8.966;2022-10-14T09:06:21;96252.16;;;12.41;100.00
58385;BME280;44185;47.844;8.966;2022-10-14T09:08:49;96245.03;;;12.42;100.00
58385;BME280;44185;47.844;8.966;2022-10-14T09:11:17;96252.28;;;12.40;100.00
58385;BME280;44185;47.844;8.966;2022-10-14T09:13:44;96250.34;;;12.42;100.00
58385;BME280;44185;47.844;8.966;2022-10-14T09:16:13;96251.59;;;12.38;100.00
58385;BME280;44185;47.844;8.966;2022-10-14T09:18:40;96244.63;;;12.27;100.00
58385;BME280;44185;47.844;8.966;2022-10-14T09:21:25;96252.34;;;12.20;100.00
58385;BME280;44185;47.844;8.966;2022-10-14T09:23:54;96248.69;;;12.11;100.00
58385;BME280;44185;47.844;8.966;2022-10-14T09:26:20;96251.09;;;12.14;100.00
58385;BME280;44185;47.844;8.966;2022-10-14T09:28:46;96248.56;;;12.12;100.00
58385;BME280;44185;47.844;8.966;2022-10-14T09:31:12;96245.19;;;12.10;100.00
58385;BME280;44185;47.844;8.966;2022-10-14T09:33:38;96244.81;;;12.15;100.00
58385;BME280;44185;47.844;8.966;2022-10-14T09:36:04;96248.28;;;12.16;100.00
58385;BME280;44185;47.844;8.966;2022-10-14T09:38:29;96250.25;;;12.14;100.00
58385;BME280;44185;47.844;8.966;2022-10-14T09:40:57;96245.75;;;12.24;100.00
58385;BME280;44185;47.844;8.966;2022-10-14T09:43:22;96234.03;;;12.27;100.00
58385;BME280;44185;47.844;8.966;2022-10-14T09:45:49;96239.75;;;12.22;100.00
58385;BME280;44185;47.844;8.966;2022-10-14T09:48:15;96230.84;;;12.23;100.00
58385;BME280;44185;47.844;8.966;2022-10-14T09:50:42;96227.19;;;12.24;100.00
58385;BME280;44185;47.844;8.966;2022-10-14T09:53:13;96231.97;;;12.20;100.00
58385;BME280;44185;47.844;8.966;2022-10-14T09:55:39;96234.44;;;12.12;100.00
58385;BME280;44185;47.844;8.966;2022-10-14T09:58:13;96228.06;;;12.15;100.00
58385;BME280;44185;47.844;8.966;2022-10-14T10:00:40;96231.66;;;12.04;100.00
58385;BME280;44185;47.844;8.966;2022-10-14T10:03:05;96228.59;;;11.98;100.00
58385;BME280;44185;47.844;8.966;2022-10-14T10:05:32;96226.66;;;12.00;100.00
58385;BME280;44185;47.844;8.966;2022-10-14T10:08:14;96218.97;;;11.97;100.00
58385;BME280;44185;47.844;8.966;2022-10-14T10:10:39;96217.97;;;12.08;100.00
58385;BME280;44185;47.844;8.966;2022-10-14T10:13:09;96218.84;;;11.99;100.00
58385;BME280;44185;47.844;8.966;2022-10-14T10:15:48;96213.25;;;11.92;100.00
58385;BME280;44185;47.844;8.966;2022-10-14T10:18:21;96210.47;;;11.94;100.00
58385;BME280;44185;47.844;8.966;2022-10-14T10:20:50;96209.94;;;11.80;100.00
58385;BME280;44185;47.844;8.966;2022-10-14T10:23:24;96209.78;;;11.82;100.00
58385;BME280;44185;47.844;8.966;2022-10-14T10:25:49;96210.06;;;11.88;100.00
58385;BME280;44185;47.844;8.966;2022-10-14T10:28:15;96210.19;;;11.87;100.00
58385;BME280;44185;47.844;8.966;2022-10-14T10:30:41;96209.34;;;11.96;100.00
58385;BME280;44185;47.844;8.966;2022-10-14T10:33:16;96208.22;;;11.99;100.00
58385;BME280;44185;47.844;8.966;2022-10-14T10:35:48;96193.56;;;12.05;100.00
58385;BME280;44185;47.844;8.966;2022-10-14T10:38:18;96199.56;;;12.17;100.00
58385;BME280;44185;47.844;8.966;2022-10-14T10:40:47;96189.63;;;12.19;100.00
58385;BME280;44185;47.844;8.966;2022-10-14T10:43:30;96176.66;;;12.26;100.00
58385;BME280;44185;47.844;8.966;2022-10-14T10:46:05;96190.88;;;12.25;100.00
58385;BME280;44185;47.844;8.966;2022-10-14T10:48:38;96184.47;;;12.27;100.00
58385;BME280;44185;47.844;8.966;2022-10-14T10:51:06;96184.00;;;12.42;100.00
58385;BME280;44185;47.844;8.966;2022-10-14T10:53:42;96183.56;;;12.47;100.00
58385;BME280;44185;47.844;8.966;2022-10-14T10:56:11;96183.56;;;12.47;100.00
58385;BME280;44185;47.844;8.966;2022-10-14T10:58:39;96184.41;;;12.47;100.00
58385;BME280;44185;47.844;8.966;2022-10-14T11:01:06;96178.50;;;12.53;100.00
58385;BME280;44185;47.844;8.966;2022-10-14T11:03:43;96175.16;;;12.51;100.00
58385;BME280;44185;47.844;8.966;2022-10-14T11:06:09;96173.47;;;12.50;100.00
58385;BME280;44185;47.844;8.966;2022-10-14T11:08:47;96174.59;;;12.57;100.00
58385;BME280;44185;47.844;8.966;2022-10-14T11:11:16;96169.13;;;12.59;100.00
58385;BME280;44185;47.844;8.966;2022-10-14T11:13:45;96163.81;;;12.59;100.00
58385;BME280;44185;47.844;8.966;2022-10-14T11:16:18;96163.50;;;12.62;100.00
58385;BME280;44185;47.844;8.966;2022-10-14T11:18:49;96161.16;;;12.59;100.00
58385;BME280;44185;47.844;8.966;2022-10-14T11:21:18;96166.16;;;12.62;100.00
58385;BME280;44185;47.844;8.966;2022-10-14T11:23:47;96164.06;;;12.66;100.00
58385;BME280;44185;47.844;8.966;2022-10-14T11:26:21;96154.41;;;12.65;100.00
58385;BME280;44185;47.844;8.966;2022-10-14T11:28:54;96141.25;;;12.73;100.00
58385;BME280;44185;47.844;8.966;2022-10-14T11:31:22;96135.09;;;12.73;100.00
58385;BME280;44185;47.844;8.966;2022-10-14T11:33:56;96133.13;;;12.75;100.00
58385;BME280;44185;47.844;8.966;2022-10-14T11:36:26;96136.47;;;12.77;100.00
58385;BME280;44185;47.844;8.966;2022-10-14T11:38:59;96132.84;;;12.78;100.00
58385;BME280;44185;47.844;8.966;2022-10-14T11:41:29;96132.00;;;12.77;100.00
58385;BME280;44185;47.844;8.966;2022-10-14T11:44:00;96128.19;;;12.80;100.00
58385;BME280;44185;47.844;8.966;2022-10-14T11:46:28;96130.56;;;12.83;100.00
58385;BME280;44185;47.844;8.966;2022-10-14T11:48:58;96122.00;;;12.89;100.00
58385;BME280;44185;47.844;8.966;2022-10-14T11:51:26;96123.53;;;12.92;100.00
58385;BME280;44185;47.844;8.966;2022-10-14T11:53:59;96120.16;;;12.90;100.00
58385;BME280;44185;47.844;8.966;2022-10-14T11:56:34;96119.94;;;12.83;100.00
58385;BME280;44185;47.844;8.966;2022-10-14T11:59:25;96119.03;;;12.93;100.00
58385;BME280;44185;47.844;8.966;2022-10-14T12:01:53;96114.09;;;12.98;100.00
58385;BME280;44185;47.844;8.966;2022-10-14T12:04:23;96100.59;;;12.91;100.00
58385;BME280;44185;47.844;8.966;2022-10-14T12:06:52;96091.13;;;13.07;100.00
58385;BME280;44185;47.844;8.966;2022-10-14T12:09:21;96096.69;;;13.14;100.00
58385;BME280;44185;47.844;8.966;2022-10-14T12:11:48;96102.88;;;13.04;100.00
58385;BME280;44185;47.844;8.966;2022-10-14T12:14:16;96095.28;;;13.09;100.00
58385;BME280;44185;47.844;8.966;2022-10-14T12:16:42;96104.78;;;13.12;100.00
58385;BME280;44185;47.844;8.966;2022-10-14T12:19:09;96091.97;;;13.07;100.00
58385;BME280;44185;47.844;8.966;2022-10-14T12:21:36;96102.66;;;12.97;100.00
58385;BME280;44185;47.844;8.966;2022-10-14T12:24:05;96085.63;;;12.90;100.00
58385;BME280;44185;47.844;8.966;2022-10-14T12:26:41;96084.19;;;12.96;100.00
58385;BME280;44185;47.844;8.966;2022-10-14T12:29:09;96079.06;;;12.94;100.00
58385;BME280;44185;47.844;8.966;2022-10-14T12:31:37;96073.28;;;12.99;100.00
58385;BME280;44185;47.844;8.966;2022-10-14T12:34:15;96085.44;;;13.01;100.00
58385;BME280;44185;47.844;8.966;2022-10-14T12:36:43;96084.44;;;13.03;100.00
58385;BME280;44185;47.844;8.966;2022-10-14T12:41:57;96080.03;;;13.11;100.00
58385;BME280;44185;47.844;8.966;2022-10-14T12:44:25;96085.88;;;13.15;100.00
58385;BME280;44185;47.844;8.966;2022-10-14T12:46:53;96076.84;;;13.26;100.00
58385;BME280;44185;47.844;8.966;2022-10-14T12:49:26;96068.94;;;13.34;100.00
58385;BME280;44185;47.844;8.966;2022-10-14T12:51:55;96058.53;;;13.41;100.00
58385;BME280;44185;47.844;8.966;2022-10-14T12:54:20;96053.09;;;13.51;100.00
58385;BME280;44185;47.844;8.966;2022-10-14T12:56:52;96049.16;;;13.55;100.00